sensor_id;sensor_type;location;lat;lon;timestamp;P1;durP1;ratioP1;P2;durP2;ratioP2
18623;SDS011;9441;51.420;7.036;2022-12-26T00:00:30;15.53;;;6.43;;
18623;SDS011;9441;51.420;7.036;2022-12-26T00:01:32;17.47;;;7.13;;
18623;SDS011;9441;51.420;7.036;2022-12-26T00:02:35;17.70;;;7.17;;
18623;SDS011;9441;51.420;7.036;2022-12-26T00:03:36;17.73;;;7.10;;
18623;SDS011;9441;51.420;7.036;2022-12-26T00:04:39;11.37;;;6.00;;
18623;SDS011;9441;51.420;7.036;2022-12-26T00:05:41;14.33;;;6.77;;
18623;SDS011;9441;51.420;7.036;2022-12-26T00:06:42;12.93;;;6.60;;
18623;SDS011;9441;51.420;7.036;2022-12-26T00:07:44;16.63;;;7.33;;
18623;SDS011;9441;51.420;7.036;2022-12-26T00:08:47;14.93;;;6.97;;
18623;SDS011;9441;51.420;7.036;2022-12-26T00:09:48;13.67;;;7.00;;
18623;SDS011;9441;51.420;7.036;2022-12-26T00:10:50;15.87;;;7.00;;
18623;SDS011;9441;51.420;7.036;2022-12-26T00:11:51;15.13;;;6.93;;
18623;SDS011;9441;51.420;7.036;2022-12-26T00:12:53;15.67;;;6.97;;
18623;SDS011;9441;51.420;7.036;2022-12-26T00:13:57;15.33;;;7.40;;
18623;SDS011;9441;51.420;7.036;2022-12-26T00:15:00;18.73;;;7.83;;
18623;SDS011;9441;51.420;7.036;2022-12-26T00:16:04;22.63;;;7.93;;
18623;SDS011;9441;51.420;7.036;2022-12-26T00:17:07;18.13;;;8.13;;
18623;SDS011;9441;51.420;7.036;2022-12-26T00:18:09;16.80;;;7.30;;
18623;SDS011;9441;51.420;7.036;2022-12-26T00:19:10;16.87;;;7.47;;
18623;SDS011;9441;51.420;7.036;2022-12-26T00:20:13;18.73;;;7.60;;
18623;SDS011;9441;51.420;7.036;2022-12-26T00:21:14;16.07;;;7.53;;
18623;SDS011;9441;51.420;7.036;2022-12-26T00:22:17;14.27;;;7.40;;
18623;SDS011;9441;51.420;7.036;2022-12-26T00:23:18;17.57;;;8.07;;
18623;SDS011;9441;51.420;7.036;2022-12-26T00:24:20;15.63;;;7.83;;
18623;SDS011;9441;51.420;7.036;2022-12-26T00:25:22;17.33;;;8.03;;
18623;SDS011;9441;51.420;7.036;2022-12-26T00:26:24;17.93;;;8.37;;
18623;SDS011;9441;51.420;7.036;2022-12-26T00:27:28;19.07;;;8.77;;
18623;SDS011;9441;51.420;7.036;2022-12-26T00:28:29;17.10;;;8.23;;
18623;SDS011;9441;51.420;7.036;2022-12-26T00:29:32;16.37;;;7.43;;
18623;SDS011;9441;51.420;7.036;2022-12-26T00:30:35;15.93;;;7.50;;
18623;SDS011;9441;51.420;7.036;2022-12-26T00:31:38;17.40;;;7.93;;
18623;SDS011;9441;51.420;7.036;2022-12-26T00:32:39;19.83;;;8.40;;
18623;SDS011;9441;51.420;7.036;2022-12-26T00:33:41;19.37;;;7.97;;
18623;SDS011;9441;51.420;7.036;2022-12-26T00:34:42;19.40;;;7.57;;
18623;SDS011;9441;51.420;7.036;2022-12-26T00:35:44;15.57;;;7.60;;
18623;SDS011;9441;51.420;7.036;2022-12-26T00:36:45;13.43;;;6.97;;
18623;SDS011;9441;51.420;7.036;2022-12-26T00:37:47;15.67;;;7.30;;
18623;SDS011;9441;51.420;7.036;2022-12-26T00:38:48;18.60;;;7.40;;
18623;SDS011;9441;51.420;7.036;2022-12-26T00:39:51;16.37;;;7.07;;
18623;SDS011;9441;51.420;7.036;2022-12-26T00:40:52;14.03;;;6.77;;
18623;SDS011;9441;51.420;7.036;2022-12-26T00:41:54;17.80;;;7.57;;
18623;SDS011;9441;51.420;7.036;2022-12-26T00:42:56;13.10;;;6.73;;
18623;SDS011;9441;51.420;7.036;2022-12-26T00:43:58;14.93;;;7.50;;
18623;SDS011;9441;51.420;7.036;2022-12-26T00:45:02;14.67;;;7.67;;
18623;SDS011;9441;51.420;7.036;2022-12-26T00:46:04;19.83;;;7.87;;
18623;SDS011;9441;51.420;7.036;2022-12-26T00:47:07;19.17;;;7.80;;
18623;SDS011;9441;51.420;7.036;2022-12-26T00:48:08;14.87;;;7.30;;
18623;SDS011;9441;51.420;7.036;2022-12-26T00:49:10;14.73;;;7.90;;
18623;SDS011;9441;51.420;7.036;2022-12-26T00:50:12;16.47;;;7.33;;
18623;SDS011;9441;51.420;7.036;2022-12-26T00:51:14;17.07;;;8.03;;
18623;SDS011;9441;51.420;7.036;2022-12-26T00:52:16;17.33;;;8.30;;
18623;SDS011;9441;51.420;7.036;2022-12-26T00:53:19;16.20;;;8.37;;
18623;SDS011;9441;51.420;7.036;2022-12-26T00:54:21;20.07;;;8.53;;
18623;SDS011;9441;51.420;7.036;2022-12-26T00:55:23;20.67;;;9.43;;
18623;SDS011;9441;51.420;7.036;2022-12-26T00:56:24;21.73;;;9.13;;
18623;SDS011;9441;51.420;7.036;2022-12-26T00:57:26;21.23;;;9.73;;
18623;SDS011;9441;51.420;7.036;2022-12-26T00:58:27;22.37;;;9.73;;
18623;SDS011;9441;51.420;7.036;2022-12-26T00:59:29;20.27;;;9.90;;
18623;SDS011;9441;51.420;7.036;2022-12-26T01:00:32;21.80;;;10.13;;
18623;SDS011;9441;51.420;7.036;2022-12-26T01:01:34;20.97;;;10.40;;
18623;SDS011;9441;51.420;7.036;2022-12-26T01:02:35;22.60;;;10.47;;
18623;SDS011;9441;51.420;7.036;2022-12-26T01:03:43;22.20;;;10.23;;
18623;SDS011;9441;51.420;7.036;2022-12-26T01:04:46;22.57;;;10.77;;
18623;SDS011;9441;51.420;7.036;2022-12-26T01:05:48;17.17;;;9.90;;
18623;SDS011;9441;51.420;7.036;2022-12-26T01:06:51;22.10;;;9.30;;
18623;SDS011;9441;51.420;7.036;2022-12-26T01:07:52;24.50;;;9.50;;
18623;SDS011;9441;51.420;7.036;2022-12-26T01:08:54;20.93;;;9.17;;
18623;SDS011;9441;51.420;7.036;2022-12-26T01:09:55;23.40;;;9.30;;
18623;SDS011;9441;51.420;7.036;2022-12-26T01:11:00;22.47;;;8.93;;
18623;SDS011;9441;51.420;7.036;2022-12-26T01:12:02;23.27;;;9.80;;
18623;SDS011;9441;51.420;7.036;2022-12-26T01:13:04;25.07;;;9.30;;
18623;SDS011;9441;51.420;7.036;2022-12-26T01:14:06;27.67;;;10.27;;
18623;SDS011;9441;51.420;7.036;2022-12-26T01:15:11;29.17;;;10.00;;
18623;SDS011;9441;51.420;7.036;2022-12-26T01:16:14;19.87;;;9.10;;
18623;SDS011;9441;51.420;7.036;2022-12-26T01:17:16;23.47;;;8.50;;
18623;SDS011;9441;51.420;7.036;2022-12-26T01:18:17;14.57;;;6.70;;
18623;SDS011;9441;51.420;7.036;2022-12-26T01:19:19;20.30;;;6.90;;
18623;SDS011;9441;51.420;7.036;2022-12-26T01:20:20;13.10;;;5.47;;
18623;SDS011;9441;51.420;7.036;2022-12-26T01:21:22;12.47;;;4.50;;
18623;SDS011;9441;51.420;7.036;2022-12-26T01:22:24;8.57;;;4.80;;
18623;SDS011;9441;51.420;7.036;2022-12-26T01:23:26;8.63;;;4.43;;
18623;SDS011;9441;51.420;7.036;2022-12-26T01:24:28;10.50;;;4.60;;
18623;SDS011;9441;51.420;7.036;2022-12-26T01:25:30;8.97;;;4.17;;
18623;SDS011;9441;51.420;7.036;2022-12-26T01:26:31;6.97;;;4.20;;
18623;SDS011;9441;51.420;7.036;2022-12-26T01:27:33;6.77;;;4.20;;
18623;SDS011;9441;51.420;7.036;2022-12-26T01:28:34;8.63;;;4.17;;
18623;SDS011;9441;51.420;7.036;2022-12-26T01:29:36;8.23;;;4.40;;
18623;SDS011;9441;51.420;7.036;2022-12-26T01:30:37;11.10;;;4.67;;
18623;SDS011;9441;51.420;7.036;2022-12-26T01:31:40;10.83;;;4.70;;
18623;SDS011;9441;51.420;7.036;2022-12-26T01:32:42;8.93;;;4.60;;
18623;SDS011;9441;51.420;7.036;2022-12-26T01:33:43;9.80;;;5.20;;
18623;SDS011;9441;51.420;7.036;2022-12-26T01:34:45;13.23;;;5.97;;
18623;SDS011;9441;51.420;7.036;2022-12-26T01:35:49;11.13;;;5.53;;
18623;SDS011;9441;51.420;7.036;2022-12-26T01:36:52;9.83;;;5.63;;
18623;SDS011;9441;51.420;7.036;2022-12-26T01:37:53;9.60;;;5.03;;
18623;SDS011;9441;51.420;7.036;2022-12-26T01:38:56;11.30;;;5.50;;
18623;SDS011;9441;51.420;7.036;2022-12-26T01:39:57;12.37;;;5.27;;
18623;SDS011;9441;51.420;7.036;2022-12-26T01:40:59;11.33;;;5.83;;
18623;SDS011;9441;51.420;7.036;2022-12-26T01:42:20;12.07;;;6.07;;
18623;SDS011;9441;51.420;7.036;2022-12-26T01:43:24;10.57;;;5.97;;
18623;SDS011;9441;51.420;7.036;2022-12-26T01:46:01;14.47;;;6.53;;
18623;SDS011;9441;51.420;7.036;2022-12-26T01:47:04;14.23;;;6.53;;
18623;SDS011;9441;51.420;7.036;2022-12-26T01:48:11;14.03;;;6.60;;
18623;SDS011;9441;51.420;7.036;2022-12-26T01:49:16;12.83;;;6.63;;
18623;SDS011;9441;51.420;7.036;2022-12-26T01:50:26;14.00;;;6.73;;
18623;SDS011;9441;51.420;7.036;2022-12-26T01:51:32;13.67;;;6.63;;
18623;SDS011;9441;51.420;7.036;2022-12-26T01:52:41;11.60;;;6.40;;
18623;SDS011;9441;51.420;7.036;2022-12-26T01:53:46;14.10;;;6.17;;
18623;SDS011;9441;51.420;7.036;2022-12-26T01:54:52;12.00;;;6.33;;
18623;SDS011;9441;51.420;7.036;2022-12-26T01:55:55;12.57;;;7.17;;
18623;SDS011;9441;51.420;7.036;2022-12-26T01:57:02;13.30;;;6.60;;
18623;SDS011;9441;51.420;7.036;2022-12-26T01:58:06;16.47;;;7.33;;
18623;SDS011;9441;51.420;7.036;2022-12-26T01:59:14;11.03;;;6.40;;
18623;SDS011;9441;51.420;7.036;2022-12-26T02:00:17;12.50;;;6.30;;
18623;SDS011;9441;51.420;7.036;2022-12-26T02:01:19;12.37;;;6.13;;
18623;SDS011;9441;51.420;7.036;2022-12-26T02:02:26;14.07;;;6.33;;
18623;SDS011;9441;51.420;7.036;2022-12-26T02:03:29;13.90;;;6.70;;
18623;SDS011;9441;51.420;7.036;2022-12-26T02:04:50;10.67;;;6.00;;
18623;SDS011;9441;51.420;7.036;2022-12-26T02:06:18;12.33;;;5.60;;
18623;SDS011;9441;51.420;7.036;2022-12-26T02:07:20;9.93;;;6.27;;
18623;SDS011;9441;51.420;7.036;2022-12-26T02:08:24;11.30;;;6.03;;
18623;SDS011;9441;51.420;7.036;2022-12-26T02:09:28;9.87;;;5.57;;
18623;SDS011;9441;51.420;7.036;2022-12-26T02:10:30;14.73;;;6.40;;
18623;SDS011;9441;51.420;7.036;2022-12-26T02:11:36;8.97;;;5.70;;
18623;SDS011;9441;51.420;7.036;2022-12-26T02:12:41;10.70;;;6.00;;
18623;SDS011;9441;51.420;7.036;2022-12-26T02:13:43;13.37;;;5.93;;
18623;SDS011;9441;51.420;7.036;2022-12-26T02:14:45;11.87;;;6.20;;
18623;SDS011;9441;51.420;7.036;2022-12-26T02:15:48;12.80;;;6.07;;
18623;SDS011;9441;51.420;7.036;2022-12-26T02:16:50;10.43;;;5.93;;
18623;SDS011;9441;51.420;7.036;2022-12-26T02:17:53;10.77;;;6.47;;
18623;SDS011;9441;51.420;7.036;2022-12-26T02:18:55;11.50;;;6.17;;
18623;SDS011;9441;51.420;7.036;2022-12-26T02:19:59;10.47;;;5.90;;
18623;SDS011;9441;51.420;7.036;2022-12-26T02:21:13;15.33;;;6.00;;
18623;SDS011;9441;51.420;7.036;2022-12-26T02:22:51;9.03;;;5.07;;
18623;SDS011;9441;51.420;7.036;2022-12-26T02:26:00;9.23;;;5.30;;
18623;SDS011;9441;51.420;7.036;2022-12-26T02:27:20;10.27;;;5.70;;
18623;SDS011;9441;51.420;7.036;2022-12-26T02:31:26;8.87;;;5.10;;
18623;SDS011;9441;51.420;7.036;2022-12-26T02:32:49;10.00;;;4.90;;
18623;SDS011;9441;51.420;7.036;2022-12-26T02:34:25;10.23;;;4.57;;
18623;SDS011;9441;51.420;7.036;2022-12-26T02:35:39;9.70;;;4.93;;
18623;SDS011;9441;51.420;7.036;2022-12-26T02:36:55;11.17;;;5.33;;
18623;SDS011;9441;51.420;7.036;2022-12-26T02:38:08;10.37;;;5.23;;
18623;SDS011;9441;51.420;7.036;2022-12-26T02:39:22;14.27;;;5.93;;
18623;SDS011;9441;51.420;7.036;2022-12-26T02:40:39;11.50;;;5.80;;
18623;SDS011;9441;51.420;7.036;2022-12-26T02:41:52;10.77;;;5.90;;
18623;SDS011;9441;51.420;7.036;2022-12-26T02:43:09;10.60;;;5.97;;
18623;SDS011;9441;51.420;7.036;2022-12-26T02:44:17;14.20;;;6.67;;
18623;SDS011;9441;51.420;7.036;2022-12-26T02:45:45;12.60;;;5.70;;
18623;SDS011;9441;51.420;7.036;2022-12-26T02:47:10;11.70;;;5.87;;
18623;SDS011;9441;51.420;7.036;2022-12-26T02:48:16;10.20;;;5.73;;
18623;SDS011;9441;51.420;7.036;2022-12-26T02:49:24;13.53;;;6.33;;
18623;SDS011;9441;51.420;7.036;2022-12-26T02:50:57;15.77;;;5.97;;
18623;SDS011;9441;51.420;7.036;2022-12-26T02:52:26;14.27;;;6.30;;
18623;SDS011;9441;51.420;7.036;2022-12-26T02:53:58;16.87;;;6.10;;
18623;SDS011;9441;51.420;7.036;2022-12-26T02:55:25;14.07;;;6.47;;
18623;SDS011;9441;51.420;7.036;2022-12-26T02:56:48;14.17;;;6.03;;
18623;SDS011;9441;51.420;7.036;2022-12-26T02:58:12;11.77;;;6.03;;
18623;SDS011;9441;51.420;7.036;2022-12-26T02:59:39;13.27;;;6.13;;
18623;SDS011;9441;51.420;7.036;2022-12-26T03:01:09;14.70;;;6.90;;
18623;SDS011;9441;51.420;7.036;2022-12-26T03:02:36;17.00;;;7.53;;
18623;SDS011;9441;51.420;7.036;2022-12-26T03:03:59;19.70;;;8.17;;
18623;SDS011;9441;51.420;7.036;2022-12-26T03:05:24;18.07;;;8.67;;
18623;SDS011;9441;51.420;7.036;2022-12-26T03:06:52;22.20;;;8.70;;
18623;SDS011;9441;51.420;7.036;2022-12-26T03:08:18;14.50;;;7.43;;
18623;SDS011;9441;51.420;7.036;2022-12-26T03:09:41;16.03;;;7.83;;
18623;SDS011;9441;51.420;7.036;2022-12-26T03:11:03;21.27;;;8.20;;
18623;SDS011;9441;51.420;7.036;2022-12-26T03:12:28;18.40;;;8.17;;
18623;SDS011;9441;51.420;7.036;2022-12-26T03:13:52;13.57;;;7.40;;
18623;SDS011;9441;51.420;7.036;2022-12-26T03:14:57;15.63;;;7.63;;
18623;SDS011;9441;51.420;7.036;2022-12-26T03:16:02;15.83;;;7.87;;
18623;SDS011;9441;51.420;7.036;2022-12-26T03:17:24;16.07;;;7.87;;
18623;SDS011;9441;51.420;7.036;2022-12-26T03:18:31;16.90;;;8.20;;
18623;SDS011;9441;51.420;7.036;2022-12-26T03:19:35;15.13;;;8.07;;
18623;SDS011;9441;51.420;7.036;2022-12-26T03:20:57;19.13;;;8.40;;
18623;SDS011;9441;51.420;7.036;2022-12-26T03:21:59;17.37;;;8.33;;
18623;SDS011;9441;51.420;7.036;2022-12-26T03:23:24;14.20;;;7.83;;
18623;SDS011;9441;51.420;7.036;2022-12-26T03:24:26;18.67;;;9.40;;
18623;SDS011;9441;51.420;7.036;2022-12-26T03:25:50;18.00;;;8.77;;
18623;SDS011;9441;51.420;7.036;2022-12-26T03:27:11;16.70;;;8.20;;
18623;SDS011;9441;51.420;7.036;2022-12-26T03:28:12;18.30;;;9.67;;
18623;SDS011;9441;51.420;7.036;2022-12-26T03:29:14;21.20;;;10.37;;
18623;SDS011;9441;51.420;7.036;2022-12-26T03:30:35;21.33;;;9.33;;
18623;SDS011;9441;51.420;7.036;2022-12-26T03:31:49;22.07;;;9.67;;
18623;SDS011;9441;51.420;7.036;2022-12-26T03:32:51;16.70;;;8.87;;
18623;SDS011;9441;51.420;7.036;2022-12-26T03:34:03;17.73;;;8.97;;
18623;SDS011;9441;51.420;7.036;2022-12-26T03:35:16;17.23;;;9.37;;
18623;SDS011;9441;51.420;7.036;2022-12-26T03:36:20;18.23;;;9.47;;
18623;SDS011;9441;51.420;7.036;2022-12-26T03:37:35;18.40;;;9.80;;
18623;SDS011;9441;51.420;7.036;2022-12-26T03:38:50;17.53;;;9.07;;
18623;SDS011;9441;51.420;7.036;2022-12-26T03:40:00;18.47;;;9.87;;
18623;SDS011;9441;51.420;7.036;2022-12-26T03:41:32;18.53;;;9.47;;
18623;SDS011;9441;51.420;7.036;2022-12-26T03:43:03;17.97;;;9.37;;
18623;SDS011;9441;51.420;7.036;2022-12-26T03:44:28;18.93;;;10.13;;
18623;SDS011;9441;51.420;7.036;2022-12-26T03:45:56;21.87;;;11.00;;
18623;SDS011;9441;51.420;7.036;2022-12-26T03:47:26;18.43;;;10.37;;
18623;SDS011;9441;51.420;7.036;2022-12-26T03:48:55;19.80;;;10.33;;
18623;SDS011;9441;51.420;7.036;2022-12-26T03:50:23;14.73;;;8.30;;
18623;SDS011;9441;51.420;7.036;2022-12-26T03:51:53;16.70;;;8.77;;
18623;SDS011;9441;51.420;7.036;2022-12-26T03:53:19;17.03;;;8.73;;
18623;SDS011;9441;51.420;7.036;2022-12-26T03:54:42;16.60;;;7.53;;
18623;SDS011;9441;51.420;7.036;2022-12-26T03:56:10;15.47;;;7.30;;
18623;SDS011;9441;51.420;7.036;2022-12-26T03:57:35;14.70;;;7.13;;
18623;SDS011;9441;51.420;7.036;2022-12-26T03:59:00;13.67;;;6.83;;
18623;SDS011;9441;51.420;7.036;2022-12-26T04:00:26;14.60;;;7.53;;
18623;SDS011;9441;51.420;7.036;2022-12-26T04:01:48;14.00;;;7.30;;
18623;SDS011;9441;51.420;7.036;2022-12-26T04:03:11;14.47;;;7.37;;
18623;SDS011;9441;51.420;7.036;2022-12-26T04:04:33;16.60;;;7.67;;
18623;SDS011;9441;51.420;7.036;2022-12-26T04:05:57;13.57;;;7.53;;
18623;SDS011;9441;51.420;7.036;2022-12-26T04:07:23;15.03;;;8.33;;
18623;SDS011;9441;51.420;7.036;2022-12-26T04:08:57;16.67;;;8.47;;
18623;SDS011;9441;51.420;7.036;2022-12-26T04:10:20;19.20;;;8.63;;
18623;SDS011;9441;51.420;7.036;2022-12-26T04:11:43;22.77;;;9.40;;
18623;SDS011;9441;51.420;7.036;2022-12-26T04:13:03;19.23;;;9.53;;
18623;SDS011;9441;51.420;7.036;2022-12-26T04:14:33;22.87;;;11.13;;
18623;SDS011;9441;51.420;7.036;2022-12-26T04:15:59;25.90;;;11.17;;
18623;SDS011;9441;51.420;7.036;2022-12-26T04:17:35;22.00;;;10.47;;
18623;SDS011;9441;51.420;7.036;2022-12-26T04:19:00;23.93;;;11.57;;
18623;SDS011;9441;51.420;7.036;2022-12-26T04:20:29;20.90;;;10.53;;
18623;SDS011;9441;51.420;7.036;2022-12-26T04:21:35;24.93;;;11.43;;
18623;SDS011;9441;51.420;7.036;2022-12-26T04:23:01;24.10;;;11.13;;
18623;SDS011;9441;51.420;7.036;2022-12-26T04:24:27;25.63;;;9.53;;
18623;SDS011;9441;51.420;7.036;2022-12-26T04:25:53;21.30;;;9.80;;
18623;SDS011;9441;51.420;7.036;2022-12-26T04:27:19;21.87;;;9.90;;
18623;SDS011;9441;51.420;7.036;2022-12-26T04:28:43;17.87;;;9.13;;
18623;SDS011;9441;51.420;7.036;2022-12-26T04:30:03;18.70;;;9.10;;
18623;SDS011;9441;51.420;7.036;2022-12-26T04:31:24;16.70;;;8.53;;
18623;SDS011;9441;51.420;7.036;2022-12-26T04:32:48;17.37;;;8.43;;
18623;SDS011;9441;51.420;7.036;2022-12-26T04:34:08;18.93;;;8.90;;
18623;SDS011;9441;51.420;7.036;2022-12-26T04:35:40;17.10;;;8.77;;
18623;SDS011;9441;51.420;7.036;2022-12-26T04:37:06;20.13;;;9.23;;
18623;SDS011;9441;51.420;7.036;2022-12-26T04:38:29;16.73;;;9.30;;
18623;SDS011;9441;51.420;7.036;2022-12-26T04:39:54;16.30;;;8.83;;
18623;SDS011;9441;51.420;7.036;2022-12-26T04:41:16;18.20;;;9.00;;
18623;SDS011;9441;51.420;7.036;2022-12-26T04:42:38;19.87;;;8.93;;
18623;SDS011;9441;51.420;7.036;2022-12-26T04:44:01;18.90;;;8.97;;
18623;SDS011;9441;51.420;7.036;2022-12-26T04:45:09;20.07;;;8.70;;
18623;SDS011;9441;51.420;7.036;2022-12-26T04:46:12;19.30;;;8.63;;
18623;SDS011;9441;51.420;7.036;2022-12-26T04:47:15;16.60;;;8.53;;
18623;SDS011;9441;51.420;7.036;2022-12-26T04:48:17;18.00;;;8.67;;
18623;SDS011;9441;51.420;7.036;2022-12-26T04:49:40;14.90;;;8.93;;
18623;SDS011;9441;51.420;7.036;2022-12-26T04:51:02;15.53;;;8.13;;
18623;SDS011;9441;51.420;7.036;2022-12-26T04:52:04;16.87;;;8.30;;
18623;SDS011;9441;51.420;7.036;2022-12-26T04:53:08;21.10;;;8.80;;
18623;SDS011;9441;51.420;7.036;2022-12-26T04:54:10;20.43;;;9.07;;
18623;SDS011;9441;51.420;7.036;2022-12-26T04:55:12;16.13;;;8.57;;
18623;SDS011;9441;51.420;7.036;2022-12-26T04:56:13;20.07;;;9.03;;
18623;SDS011;9441;51.420;7.036;2022-12-26T04:57:17;18.93;;;9.00;;
18623;SDS011;9441;51.420;7.036;2022-12-26T04:58:18;18.67;;;9.10;;
18623;SDS011;9441;51.420;7.036;2022-12-26T04:59:23;15.47;;;8.13;;
18623;SDS011;9441;51.420;7.036;2022-12-26T05:00:25;19.63;;;9.10;;
18623;SDS011;9441;51.420;7.036;2022-12-26T05:01:28;18.50;;;8.93;;
18623;SDS011;9441;51.420;7.036;2022-12-26T05:02:47;20.60;;;9.30;;
18623;SDS011;9441;51.420;7.036;2022-12-26T05:04:08;20.90;;;9.07;;
18623;SDS011;9441;51.420;7.036;2022-12-26T05:05:31;19.63;;;8.70;;
18623;SDS011;9441;51.420;7.036;2022-12-26T05:07:10;18.93;;;8.43;;
18623;SDS011;9441;51.420;7.036;2022-12-26T05:08:34;18.93;;;8.77;;
18623;SDS011;9441;51.420;7.036;2022-12-26T05:09:57;24.67;;;9.20;;
18623;SDS011;9441;51.420;7.036;2022-12-26T05:10:59;21.97;;;8.70;;
18623;SDS011;9441;51.420;7.036;2022-12-26T05:12:00;21.33;;;9.80;;
18623;SDS011;9441;51.420;7.036;2022-12-26T05:13:02;17.23;;;9.00;;
18623;SDS011;9441;51.420;7.036;2022-12-26T05:14:03;22.20;;;8.93;;
18623;SDS011;9441;51.420;7.036;2022-12-26T05:15:06;24.90;;;9.53;;
18623;SDS011;9441;51.420;7.036;2022-12-26T05:16:07;21.33;;;9.17;;
18623;SDS011;9441;51.420;7.036;2022-12-26T05:17:26;21.77;;;8.60;;
18623;SDS011;9441;51.420;7.036;2022-12-26T05:18:46;18.37;;;8.70;;
18623;SDS011;9441;51.420;7.036;2022-12-26T05:20:06;18.47;;;8.77;;
18623;SDS011;9441;51.420;7.036;2022-12-26T05:21:27;21.77;;;8.40;;
18623;SDS011;9441;51.420;7.036;2022-12-26T05:22:48;15.40;;;8.23;;
18623;SDS011;9441;51.420;7.036;2022-12-26T05:24:07;15.47;;;7.90;;
18623;SDS011;9441;51.420;7.036;2022-12-26T05:25:29;23.03;;;8.90;;
18623;SDS011;9441;51.420;7.036;2022-12-26T05:26:51;17.70;;;7.53;;
18623;SDS011;9441;51.420;7.036;2022-12-26T05:28:11;16.20;;;7.83;;
18623;SDS011;9441;51.420;7.036;2022-12-26T05:29:32;16.37;;;7.63;;
18623;SDS011;9441;51.420;7.036;2022-12-26T05:30:34;20.27;;;8.20;;
18623;SDS011;9441;51.420;7.036;2022-12-26T05:31:35;18.97;;;8.20;;
18623;SDS011;9441;51.420;7.036;2022-12-26T05:32:37;15.10;;;7.00;;
18623;SDS011;9441;51.420;7.036;2022-12-26T05:33:56;13.67;;;6.77;;
18623;SDS011;9441;51.420;7.036;2022-12-26T05:35:07;17.17;;;7.43;;
18623;SDS011;9441;51.420;7.036;2022-12-26T05:36:08;19.30;;;7.37;;
18623;SDS011;9441;51.420;7.036;2022-12-26T05:37:10;18.40;;;7.63;;
18623;SDS011;9441;51.420;7.036;2022-12-26T05:38:13;14.80;;;7.73;;
18623;SDS011;9441;51.420;7.036;2022-12-26T05:39:15;13.17;;;6.90;;
18623;SDS011;9441;51.420;7.036;2022-12-26T05:40:16;16.37;;;7.50;;
18623;SDS011;9441;51.420;7.036;2022-12-26T05:41:18;13.90;;;6.90;;
18623;SDS011;9441;51.420;7.036;2022-12-26T05:42:19;18.60;;;7.90;;
18623;SDS011;9441;51.420;7.036;2022-12-26T05:43:21;22.40;;;7.43;;
18623;SDS011;9441;51.420;7.036;2022-12-26T05:44:23;18.97;;;7.80;;
18623;SDS011;9441;51.420;7.036;2022-12-26T05:45:25;20.80;;;8.33;;
18623;SDS011;9441;51.420;7.036;2022-12-26T05:46:26;20.70;;;6.93;;
18623;SDS011;9441;51.420;7.036;2022-12-26T05:47:28;15.77;;;6.90;;
18623;SDS011;9441;51.420;7.036;2022-12-26T05:48:29;24.33;;;7.93;;
18623;SDS011;9441;51.420;7.036;2022-12-26T05:49:31;12.60;;;6.90;;
18623;SDS011;9441;51.420;7.036;2022-12-26T05:50:33;15.87;;;7.27;;
18623;SDS011;9441;51.420;7.036;2022-12-26T05:51:34;15.37;;;7.57;;
18623;SDS011;9441;51.420;7.036;2022-12-26T05:52:36;17.87;;;8.23;;
18623;SDS011;9441;51.420;7.036;2022-12-26T05:53:39;21.53;;;8.77;;
18623;SDS011;9441;51.420;7.036;2022-12-26T05:54:41;22.10;;;8.70;;
18623;SDS011;9441;51.420;7.036;2022-12-26T05:55:42;18.77;;;8.90;;
18623;SDS011;9441;51.420;7.036;2022-12-26T05:56:44;21.53;;;8.20;;
18623;SDS011;9441;51.420;7.036;2022-12-26T05:57:45;17.83;;;8.37;;
18623;SDS011;9441;51.420;7.036;2022-12-26T05:58:52;18.60;;;8.07;;
18623;SDS011;9441;51.420;7.036;2022-12-26T05:59:54;21.20;;;8.83;;
18623;SDS011;9441;51.420;7.036;2022-12-26T06:01:02;17.57;;;8.40;;
18623;SDS011;9441;51.420;7.036;2022-12-26T06:02:05;16.37;;;7.27;;
18623;SDS011;9441;51.420;7.036;2022-12-26T06:03:07;18.40;;;8.07;;
18623;SDS011;9441;51.420;7.036;2022-12-26T06:04:08;17.97;;;8.10;;
18623;SDS011;9441;51.420;7.036;2022-12-26T06:05:10;16.30;;;8.27;;
18623;SDS011;9441;51.420;7.036;2022-12-26T06:06:11;16.37;;;8.27;;
18623;SDS011;9441;51.420;7.036;2022-12-26T06:07:14;18.70;;;8.90;;
18623;SDS011;9441;51.420;7.036;2022-12-26T06:08:15;18.83;;;8.27;;
18623;SDS011;9441;51.420;7.036;2022-12-26T06:09:18;22.00;;;8.47;;
18623;SDS011;9441;51.420;7.036;2022-12-26T06:10:19;17.50;;;8.07;;
18623;SDS011;9441;51.420;7.036;2022-12-26T06:11:22;18.03;;;7.97;;
18623;SDS011;9441;51.420;7.036;2022-12-26T06:12:24;20.20;;;8.57;;
18623;SDS011;9441;51.420;7.036;2022-12-26T06:13:27;17.43;;;7.87;;
18623;SDS011;9441;51.420;7.036;2022-12-26T06:14:28;18.27;;;8.30;;
18623;SDS011;9441;51.420;7.036;2022-12-26T06:15:30;18.10;;;8.47;;
18623;SDS011;9441;51.420;7.036;2022-12-26T06:16:32;16.97;;;7.90;;
18623;SDS011;9441;51.420;7.036;2022-12-26T06:17:34;21.43;;;9.03;;
18623;SDS011;9441;51.420;7.036;2022-12-26T06:18:35;18.33;;;8.10;;
18623;SDS011;9441;51.420;7.036;2022-12-26T06:19:37;20.43;;;8.07;;
18623;SDS011;9441;51.420;7.036;2022-12-26T06:20:38;24.07;;;8.43;;
18623;SDS011;9441;51.420;7.036;2022-12-26T06:21:40;17.13;;;8.20;;
18623;SDS011;9441;51.420;7.036;2022-12-26T06:22:41;21.90;;;8.93;;
18623;SDS011;9441;51.420;7.036;2022-12-26T06:23:43;14.57;;;7.90;;
18623;SDS011;9441;51.420;7.036;2022-12-26T06:24:46;19.23;;;8.13;;
18623;SDS011;9441;51.420;7.036;2022-12-26T06:25:54;16.27;;;8.53;;
18623;SDS011;9441;51.420;7.036;2022-12-26T06:26:55;15.67;;;7.47;;
18623;SDS011;9441;51.420;7.036;2022-12-26T06:27:57;21.57;;;8.67;;
18623;SDS011;9441;51.420;7.036;2022-12-26T06:28:58;17.83;;;7.63;;
18623;SDS011;9441;51.420;7.036;2022-12-26T06:30:00;21.70;;;8.77;;
18623;SDS011;9441;51.420;7.036;2022-12-26T06:31:02;24.63;;;8.47;;
18623;SDS011;9441;51.420;7.036;2022-12-26T06:32:04;23.37;;;9.00;;
18623;SDS011;9441;51.420;7.036;2022-12-26T06:33:05;18.40;;;8.70;;
18623;SDS011;9441;51.420;7.036;2022-12-26T06:34:08;18.37;;;8.37;;
18623;SDS011;9441;51.420;7.036;2022-12-26T06:35:10;19.57;;;8.53;;
18623;SDS011;9441;51.420;7.036;2022-12-26T06:36:13;19.23;;;8.43;;
18623;SDS011;9441;51.420;7.036;2022-12-26T06:37:15;18.07;;;8.53;;
18623;SDS011;9441;51.420;7.036;2022-12-26T06:38:17;23.43;;;9.27;;
18623;SDS011;9441;51.420;7.036;2022-12-26T06:39:18;21.57;;;9.20;;
18623;SDS011;9441;51.420;7.036;2022-12-26T06:40:21;20.93;;;8.70;;
18623;SDS011;9441;51.420;7.036;2022-12-26T06:41:23;21.40;;;8.93;;
18623;SDS011;9441;51.420;7.036;2022-12-26T06:42:25;21.50;;;9.53;;
18623;SDS011;9441;51.420;7.036;2022-12-26T06:43:27;25.93;;;9.83;;
18623;SDS011;9441;51.420;7.036;2022-12-26T06:44:30;22.27;;;9.80;;
18623;SDS011;9441;51.420;7.036;2022-12-26T06:45:31;18.07;;;9.00;;
18623;SDS011;9441;51.420;7.036;2022-12-26T06:46:33;27.13;;;9.60;;
18623;SDS011;9441;51.420;7.036;2022-12-26T06:47:34;24.77;;;9.90;;
18623;SDS011;9441;51.420;7.036;2022-12-26T06:48:37;21.97;;;9.63;;
18623;SDS011;9441;51.420;7.036;2022-12-26T06:49:38;21.07;;;9.60;;
18623;SDS011;9441;51.420;7.036;2022-12-26T06:50:40;23.33;;;9.90;;
18623;SDS011;9441;51.420;7.036;2022-12-26T06:51:41;22.70;;;9.50;;
18623;SDS011;9441;51.420;7.036;2022-12-26T06:52:44;17.83;;;9.63;;
18623;SDS011;9441;51.420;7.036;2022-12-26T06:53:46;23.93;;;9.50;;
18623;SDS011;9441;51.420;7.036;2022-12-26T06:54:48;22.77;;;9.47;;
18623;SDS011;9441;51.420;7.036;2022-12-26T06:55:50;21.67;;;9.40;;
18623;SDS011;9441;51.420;7.036;2022-12-26T06:56:52;22.13;;;9.30;;
18623;SDS011;9441;51.420;7.036;2022-12-26T06:57:53;20.03;;;9.60;;
18623;SDS011;9441;51.420;7.036;2022-12-26T06:58:56;19.77;;;9.10;;
18623;SDS011;9441;51.420;7.036;2022-12-26T06:59:58;28.50;;;9.77;;
18623;SDS011;9441;51.420;7.036;2022-12-26T07:01:04;21.83;;;8.97;;
18623;SDS011;9441;51.420;7.036;2022-12-26T07:02:05;19.73;;;8.67;;